createdAt,value
2018-05-21T00:00:32.393Z,1015.40
2018-05-21T00:01:33.380Z,1015.40
2018-05-21T00:02:29.915Z,1015.40
2018-05-21T00:03:28.728Z,1015.37
2018-05-21T00:04:28.727Z,1015.40
2018-05-21T00:05:28.587Z,1015.40
2018-05-21T00:06:28.763Z,1015.34
2018-05-21T00:07:28.927Z,1015.33
2018-05-21T00:08:29.384Z,1015.35
2018-05-21T00:09:28.679Z,1015.33
2018-05-21T00:10:28.656Z,1015.33
2018-05-21T00:11:29.037Z,1015.33
2018-05-21T00:12:30.881Z,1015.34
2018-05-21T00:13:28.840Z,1015.31
2018-05-21T00:14:30.374Z,1015.36
2018-05-21T00:15:28.776Z,1015.33
2018-05-21T00:16:28.704Z,1015.32
2018-05-21T00:17:28.523Z,1015.35
2018-05-21T00:18:28.635Z,1015.36
2018-05-21T00:19:28.530Z,1015.39
2018-05-21T00:20:28.597Z,1015.36
2018-05-21T00:21:28.487Z,1015.36
2018-05-21T00:22:28.512Z,1015.36
2018-05-21T00:23:28.747Z,1015.34
2018-05-21T00:24:28.716Z,1015.35
2018-05-21T00:25:28.594Z,1015.33
2018-05-21T00:26:28.670Z,1015.30
2018-05-21T00:27:29.131Z,1015.29
2018-05-21T00:28:32.885Z,1015.28
2018-05-21T00:29:30.933Z,1015.30
2018-05-21T00:30:29.009Z,1015.28
2018-05-21T00:31:28.639Z,1015.28
2018-05-21T00:32:29.888Z,1015.25
2018-05-21T00:38:39.521Z,1015.20
2018-05-21T00:39:11.367Z,1015.19
2018-05-21T00:40:11.382Z,1015.19
2018-05-21T00:41:11.732Z,1015.22
2018-05-21T00:42:11.945Z,1015.19
2018-05-21T00:43:12.675Z,1015.20
2018-05-21T00:44:11.333Z,1015.20
2018-05-21T00:45:11.055Z,1015.20
2018-05-21T00:46:11.647Z,1015.15
2018-05-21T00:47:11.350Z,1015.14
2018-05-21T00:48:11.401Z,1015.13
2018-05-21T00:49:11.469Z,1015.09
2018-05-21T00:50:12.566Z,1015.10
2018-05-21T00:51:13.398Z,1015.10
2018-05-21T00:52:11.067Z,1015.07
2018-05-21T00:53:10.967Z,1015.10
2018-05-21T00:54:10.929Z,1015.07
2018-05-21T00:55:19.813Z,1015.07
2018-05-21T00:56:25.584Z,1015.04
2018-05-21T00:57:21.130Z,1015.05
2018-05-21T00:58:20.663Z,1015.05
2018-05-21T00:59:19.164Z,1015.01
2018-05-21T01:00:21.190Z,1015.01
2018-05-21T01:01:23.764Z,1015.02
2018-05-21T01:02:25.810Z,1015.00
2018-05-21T01:03:12.752Z,1015.02
2018-05-21T01:04:13.374Z,1014.99
2018-05-21T01:05:10.806Z,1014.98
2018-05-21T01:06:10.874Z,1015.00
2018-05-21T01:07:10.909Z,1014.98
2018-05-21T01:08:10.863Z,1014.97
2018-05-21T01:09:10.905Z,1014.93
2018-05-21T01:10:10.846Z,1014.93
2018-05-21T01:11:11.007Z,1014.94
2018-05-21T01:12:10.845Z,1014.96
2018-05-21T01:13:10.730Z,1014.93
2018-05-21T01:14:10.759Z,1014.94
2018-05-21T01:15:10.674Z,1014.95
2018-05-21T01:16:10.794Z,1014.92
2018-05-21T01:17:10.720Z,1014.92
2018-05-21T01:18:10.930Z,1014.95
2018-05-21T01:19:10.714Z,1014.94
2018-05-21T01:20:10.662Z,1014.94
2018-05-21T01:21:10.565Z,1014.95
2018-05-21T01:22:10.600Z,1014.96
2018-05-21T01:23:10.632Z,1014.95
2018-05-21T01:24:10.676Z,1014.96
2018-05-21T01:25:10.625Z,1014.94
2018-05-21T01:26:10.510Z,1014.93
2018-05-21T01:27:10.656Z,1014.95
2018-05-21T01:28:10.551Z,1014.96
2018-05-21T01:29:10.533Z,1014.92
2018-05-21T01:30:10.465Z,1014.92
2018-05-21T01:31:10.726Z,1014.89
2018-05-21T01:32:10.516Z,1014.89
2018-05-21T01:33:10.532Z,1014.85
2018-05-21T01:34:10.630Z,1014.88
2018-05-21T01:35:10.381Z,1014.83
2018-05-21T01:36:10.421Z,1014.84
2018-05-21T01:37:10.395Z,1014.85
2018-05-21T01:38:10.424Z,1014.85
2018-05-21T01:39:10.365Z,1014.85
2018-05-21T01:40:10.407Z,1014.86
2018-05-21T01:41:10.395Z,1014.88
2018-05-21T01:42:10.282Z,1014.88
2018-05-21T01:43:10.296Z,1014.87
2018-05-21T01:44:10.254Z,1014.90
2018-05-21T01:45:10.224Z,1014.91
2018-05-21T01:46:12.315Z,1014.86
2018-05-21T01:47:11.260Z,1014.84
2018-05-21T01:48:10.301Z,1014.86
2018-05-21T01:49:10.246Z,1014.79
2018-05-21T01:50:10.301Z,1014.83
2018-05-21T01:51:10.457Z,1014.84
2018-05-21T01:52:10.246Z,1014.86
2018-05-21T01:53:10.377Z,1014.85
2018-05-21T01:54:10.600Z,1014.80
2018-05-21T01:55:10.574Z,1014.84
2018-05-21T01:56:10.132Z,1014.84
2018-05-21T01:57:10.167Z,1014.83
2018-05-21T01:58:10.137Z,1014.78
2018-05-21T01:59:10.073Z,1014.84
2018-05-21T02:00:10.094Z,1014.79
2018-05-21T02:01:10.036Z,1014.76
2018-05-21T02:02:10.065Z,1014.72
2018-05-21T02:03:10.257Z,1014.73
2018-05-21T02:04:10.038Z,1014.77
2018-05-21T02:05:09.974Z,1014.78
2018-05-21T02:06:09.972Z,1014.78
2018-05-21T02:07:09.971Z,1014.75
2018-05-21T02:08:09.952Z,1014.71
2018-05-21T02:09:10.114Z,1014.71
2018-05-21T02:10:10.047Z,1014.71
2018-05-21T02:11:09.939Z,1014.65
2018-05-21T02:12:10.399Z,1014.66
2018-05-21T02:13:10.044Z,1014.70
2018-05-21T02:14:10.173Z,1014.70
2018-05-21T02:15:09.894Z,1014.70
2018-05-21T02:16:10.578Z,1014.71
2018-05-21T02:17:10.189Z,1014.67
2018-05-21T02:18:09.895Z,1014.65
2018-05-21T02:19:09.771Z,1014.64
2018-05-21T02:20:09.804Z,1014.65
2018-05-21T02:21:09.734Z,1014.66
2018-05-21T02:22:09.710Z,1014.69
2018-05-21T02:23:09.721Z,1014.69
2018-05-21T02:24:10.239Z,1014.67
2018-05-21T02:25:09.768Z,1014.70
2018-05-21T02:26:09.663Z,1014.67
2018-05-21T02:27:09.672Z,1014.67
2018-05-21T02:48:06.338Z,1014.51
2018-05-21T02:50:05.268Z,1014.50
2018-05-21T02:51:05.502Z,1014.52
2018-05-21T02:52:06.210Z,1014.52
2018-05-21T02:53:04.766Z,1014.51
2018-05-21T02:54:05.265Z,1014.51
2018-05-21T02:55:10.267Z,1014.46
2018-05-21T02:58:48.597Z,1014.45
2018-05-21T02:59:46.853Z,1014.49
2018-05-21T03:00:50.138Z,1014.50
2018-05-21T03:01:38.876Z,1014.49
2018-05-21T03:04:48.371Z,1014.43
2018-05-21T03:05:41.024Z,1014.41
2018-05-21T03:06:41.075Z,1014.42
2018-05-21T03:07:42.161Z,1014.38
2018-05-21T03:08:40.837Z,1014.40
2018-05-21T03:09:40.891Z,1014.41
2018-05-21T03:10:40.759Z,1014.42
2018-05-21T03:11:40.798Z,1014.43
2018-05-21T03:12:42.671Z,1014.39
2018-05-21T03:13:40.942Z,1014.38
2018-05-21T03:14:40.795Z,1014.39
2018-05-21T03:15:41.673Z,1014.38
2018-05-21T03:16:41.266Z,1014.40
2018-05-21T03:17:40.671Z,1014.41
2018-05-21T03:18:40.657Z,1014.37
2018-05-21T03:19:40.658Z,1014.37
2018-05-21T03:20:40.606Z,1014.37
2018-05-21T03:21:40.606Z,1014.39
2018-05-21T03:22:40.632Z,1014.35
2018-05-21T03:23:41.168Z,1014.39
2018-05-21T03:24:44.729Z,1014.37
2018-05-21T03:25:42.235Z,1014.35
2018-05-21T03:26:58.165Z,1014.35
2018-05-21T03:27:42.680Z,1014.37
2018-05-21T03:29:42.170Z,1014.34
2018-05-21T03:30:40.770Z,1014.35
2018-05-21T03:31:40.485Z,1014.33
2018-05-21T03:33:49.167Z,1014.34
2018-05-21T03:34:51.672Z,1014.37
2018-05-21T03:48:17.748Z,1014.38
2018-05-21T04:16:34.778Z,1014.27
2018-05-21T04:19:01.957Z,1014.27
2018-05-21T04:41:57.208Z,1014.20
2018-05-21T04:52:01.404Z,1014.14
2018-05-21T04:52:02.177Z,1014.19
2018-05-21T04:53:02.259Z,1014.13
2018-05-21T04:54:30.601Z,1014.14
2018-05-21T04:55:02.008Z,1014.11
2018-05-21T04:56:12.287Z,1014.10
2018-05-21T04:57:03.765Z,1014.10
2018-05-21T05:03:40.589Z,1014.11
2018-05-21T05:07:58.489Z,1014.10
2018-05-21T05:08:58.472Z,1014.08
2018-05-21T05:09:58.425Z,1014.13
2018-05-21T05:10:58.426Z,1014.10
2018-05-21T05:11:58.840Z,1014.09
2018-05-21T05:12:58.347Z,1014.06
2018-05-21T05:13:58.352Z,1014.09
2018-05-21T05:14:58.329Z,1014.09
2018-05-21T05:15:58.303Z,1014.05
2018-05-21T05:16:58.987Z,1014.08
2018-05-21T05:18:11.372Z,1014.04
2018-05-21T05:19:07.572Z,1014.00
2018-05-21T05:19:58.317Z,1014.02
2018-05-21T05:20:59.091Z,1013.99
2018-05-21T05:21:58.324Z,1013.95
2018-05-21T05:22:58.495Z,1013.92
2018-05-21T05:23:58.285Z,1013.89
2018-05-21T05:24:58.231Z,1013.91
2018-05-21T05:26:01.872Z,1013.92
2018-05-21T05:27:59.601Z,1013.89
2018-05-21T05:28:58.639Z,1013.89
2018-05-21T05:29:58.156Z,1013.87
2018-05-21T05:31:14.845Z,1013.88
2018-05-21T05:32:02.202Z,1013.87
2018-05-21T05:33:02.123Z,1013.83
2018-05-21T05:33:58.113Z,1013.90
2018-05-21T05:34:58.075Z,1013.90
2018-05-21T05:35:58.087Z,1013.88
2018-05-21T05:36:58.153Z,1013.88
2018-05-21T05:37:58.069Z,1013.84
2018-05-21T05:38:58.029Z,1013.86
2018-05-21T05:39:58.864Z,1013.85
2018-05-21T05:40:58.004Z,1013.84
2018-05-21T05:41:58.059Z,1013.81
2018-05-21T05:42:57.955Z,1013.79
2018-05-21T05:43:57.934Z,1013.73
2018-05-21T05:44:57.929Z,1013.80
2018-05-21T05:45:57.913Z,1013.79
2018-05-21T05:46:57.970Z,1013.78
2018-05-21T05:47:57.923Z,1013.75
2018-05-21T05:48:57.882Z,1013.74
2018-05-21T05:49:57.873Z,1013.71
2018-05-21T05:50:58.395Z,1013.68
2018-05-21T05:51:57.869Z,1013.71
2018-05-21T05:52:57.825Z,1013.68
2018-05-21T05:53:57.870Z,1013.73
2018-05-21T05:54:57.804Z,1013.72
2018-05-21T05:55:57.799Z,1013.71
2018-05-21T05:56:57.810Z,1013.69
2018-05-21T05:58:59.897Z,1013.69
2018-05-21T05:59:58.880Z,1013.67
2018-05-21T06:05:09.046Z,1013.71
2018-05-21T06:06:04.891Z,1013.71
2018-05-21T06:07:24.392Z,1013.67
2018-05-21T06:09:00.632Z,1013.70
2018-05-21T06:09:58.692Z,1013.69
2018-05-21T06:10:58.551Z,1013.74
2018-05-21T06:11:58.544Z,1013.72
2018-05-21T06:12:58.521Z,1013.67
2018-05-21T06:13:58.588Z,1013.69
2018-05-21T06:14:58.483Z,1013.70
2018-05-21T06:15:58.531Z,1013.71
2018-05-21T06:16:58.475Z,1013.73
2018-05-21T06:17:58.499Z,1013.71
2018-05-21T06:18:58.470Z,1013.71
2018-05-21T06:19:58.765Z,1013.70
2018-05-21T06:20:58.422Z,1013.72
2018-05-21T06:21:58.429Z,1013.72
2018-05-21T06:22:58.438Z,1013.74
2018-05-21T06:23:58.422Z,1013.71
2018-05-21T06:24:58.374Z,1013.74
2018-05-21T06:25:58.466Z,1013.74
2018-05-21T06:26:58.334Z,1013.75
2018-05-21T06:27:58.492Z,1013.74
2018-05-21T06:28:58.311Z,1013.74
2018-05-21T06:29:58.334Z,1013.73
2018-05-21T06:30:58.313Z,1013.73
2018-05-21T06:31:58.272Z,1013.71
2018-05-21T06:32:58.277Z,1013.71
2018-05-21T06:33:58.353Z,1013.71
2018-05-21T06:34:58.233Z,1013.67
2018-05-21T06:35:58.267Z,1013.64
2018-05-21T06:36:58.232Z,1013.68
2018-05-21T06:37:58.214Z,1013.68
2018-05-21T06:38:58.192Z,1013.68
2018-05-21T06:39:58.171Z,1013.74
2018-05-21T06:41:19.190Z,1013.73
2018-05-21T06:41:58.187Z,1013.71
2018-05-21T06:42:58.164Z,1013.72
2018-05-21T06:43:58.131Z,1013.68
2018-05-21T06:44:58.150Z,1013.69
2018-05-21T06:45:58.135Z,1013.69
2018-05-21T06:46:58.139Z,1013.71
2018-05-21T06:47:58.105Z,1013.71
2018-05-21T06:48:58.115Z,1013.73
2018-05-21T06:49:58.099Z,1013.67
2018-05-21T06:50:58.052Z,1013.67
2018-05-21T06:51:58.088Z,1013.66
2018-05-21T06:52:58.035Z,1013.70
2018-05-21T06:53:58.028Z,1013.68
2018-05-21T06:54:58.010Z,1013.68
2018-05-21T06:55:58.018Z,1013.69
2018-05-21T06:56:57.982Z,1013.68
2018-05-21T06:57:57.992Z,1013.69
2018-05-21T06:58:57.958Z,1013.69
2018-05-21T06:59:57.940Z,1013.66
2018-05-21T07:00:57.929Z,1013.67
2018-05-21T07:01:57.934Z,1013.65
2018-05-21T07:02:57.930Z,1013.64
2018-05-21T07:03:57.898Z,1013.63
2018-05-21T07:04:57.880Z,1013.64
2018-05-21T07:05:57.871Z,1013.65
2018-05-21T07:06:57.862Z,1013.63
2018-05-21T07:08:06.040Z,1013.64
2018-05-21T07:08:57.836Z,1013.64
2018-05-21T07:09:57.818Z,1013.65
2018-05-21T07:10:57.811Z,1013.68
2018-05-21T07:11:57.799Z,1013.68
2018-05-21T07:12:57.798Z,1013.67
2018-05-21T07:13:57.809Z,1013.68
2018-05-21T07:14:57.767Z,1013.66
2018-05-21T07:15:57.761Z,1013.68
2018-05-21T07:16:57.744Z,1013.67
2018-05-21T07:17:57.737Z,1013.75
2018-05-21T07:18:57.726Z,1013.94
2018-05-21T07:19:57.725Z,1013.77
2018-05-21T07:20:57.720Z,1013.60
2018-05-21T07:21:57.683Z,1013.58
2018-05-21T07:22:57.681Z,1013.60
2018-05-21T07:23:57.667Z,1013.60
2018-05-21T07:24:57.668Z,1013.55
2018-05-21T07:25:57.659Z,1013.50
2018-05-21T07:26:57.639Z,1013.51
2018-05-21T07:27:57.625Z,1013.43
2018-05-21T07:28:57.620Z,1013.45
2018-05-21T07:29:57.634Z,1013.55
2018-05-21T07:30:57.635Z,1013.40
2018-05-21T07:31:59.433Z,1013.39
2018-05-21T07:32:58.607Z,1013.36
2018-05-21T07:33:57.849Z,1013.36
2018-05-21T07:35:01.942Z,1013.31
2018-05-21T07:35:57.554Z,1013.32
2018-05-21T07:36:57.535Z,1013.32
2018-05-21T07:37:57.556Z,1013.28
2018-05-21T07:38:57.535Z,1013.28
2018-05-21T07:39:57.501Z,1013.28
2018-05-21T07:40:57.500Z,1013.25
2018-05-21T07:41:57.475Z,1013.26
2018-05-21T07:42:57.479Z,1013.26
2018-05-21T07:43:57.476Z,1013.23
2018-05-21T07:44:57.506Z,1013.24
2018-05-21T07:45:57.442Z,1013.20
2018-05-21T07:46:57.445Z,1013.19
2018-05-21T07:47:57.417Z,1013.18
2018-05-21T07:48:57.413Z,1013.20
2018-05-21T07:49:57.414Z,1013.18
2018-05-21T07:50:57.410Z,1013.20
2018-05-21T07:51:57.370Z,1013.17
2018-05-21T07:52:57.373Z,1013.13
2018-05-21T07:53:57.357Z,1013.12
2018-05-21T07:54:57.354Z,1013.13
2018-05-21T07:55:57.363Z,1013.12
2018-05-21T07:56:57.332Z,1013.13
2018-05-21T07:57:57.326Z,1013.14
2018-05-21T07:58:57.318Z,1013.13
2018-05-21T07:59:57.316Z,1013.12
2018-05-21T08:00:57.283Z,1013.07
2018-05-21T08:01:57.273Z,1013.06
2018-05-21T08:02:57.272Z,1013.06
2018-05-21T08:03:57.254Z,1013.08
2018-05-21T08:04:57.241Z,1013.06
2018-05-21T08:05:57.244Z,1013.10
2018-05-21T08:06:57.241Z,1013.06
2018-05-21T08:07:57.489Z,1013.02
2018-05-21T08:08:57.207Z,1013.04
2018-05-21T08:09:57.216Z,1013.02
2018-05-21T08:10:57.183Z,1013.05
2018-05-21T08:11:57.188Z,1013.05
2018-05-21T08:12:57.170Z,1013.10
2018-05-21T08:13:57.154Z,1013.07
2018-05-21T08:14:57.199Z,1013.06
2018-05-21T08:15:57.149Z,1013.03
2018-05-21T08:16:57.160Z,1013.04
2018-05-21T08:17:57.114Z,1012.99
2018-05-21T08:18:57.104Z,1013.02
2018-05-21T08:19:57.093Z,1013.02
2018-05-21T08:20:57.081Z,1013.04
2018-05-21T08:21:57.078Z,1013.00
2018-05-21T08:22:57.089Z,1013.00
2018-05-21T08:23:57.059Z,1013.01
2018-05-21T08:24:57.061Z,1012.97
2018-05-21T08:25:57.032Z,1012.98
2018-05-21T08:26:57.133Z,1012.96
2018-05-21T08:27:57.036Z,1012.97
2018-05-21T08:28:57.009Z,1012.96
2018-05-21T08:29:57.006Z,1012.97
2018-05-21T08:30:56.992Z,1012.93
2018-05-21T08:31:57.049Z,1012.91
2018-05-21T08:32:56.970Z,1012.90
2018-05-21T08:33:56.986Z,1012.89
2018-05-21T08:34:56.968Z,1012.88
2018-05-21T08:35:56.939Z,1012.90
2018-05-21T08:36:56.931Z,1012.89
2018-05-21T08:37:56.945Z,1012.88
2018-05-21T08:38:56.909Z,1012.89
2018-05-21T08:39:56.915Z,1012.90
2018-05-21T08:40:56.895Z,1012.87
2018-05-21T08:41:56.883Z,1012.87
2018-05-21T08:42:56.887Z,1012.86
2018-05-21T08:43:56.883Z,1012.88
2018-05-21T08:44:56.860Z,1012.82
2018-05-21T08:45:56.882Z,1012.83
2018-05-21T08:46:56.837Z,1012.84
2018-05-21T08:47:56.826Z,1012.87
2018-05-21T08:48:56.823Z,1012.79
2018-05-21T08:49:56.827Z,1012.77
2018-05-21T08:50:56.820Z,1012.77
2018-05-21T08:51:56.812Z,1012.79
2018-05-21T08:52:56.787Z,1012.76
2018-05-21T08:53:56.804Z,1012.74
2018-05-21T08:54:56.796Z,1012.72
2018-05-21T08:55:56.763Z,1012.70
2018-05-21T08:56:56.752Z,1012.69
2018-05-21T08:57:56.756Z,1012.68
2018-05-21T08:58:56.739Z,1012.69
2018-05-21T08:59:56.732Z,1012.69
2018-05-21T09:00:56.715Z,1012.64
2018-05-21T09:01:56.710Z,1012.61
2018-05-21T09:02:56.713Z,1012.60
2018-05-21T09:03:56.698Z,1012.56
2018-05-21T09:04:56.716Z,1012.59
2018-05-21T09:05:56.672Z,1012.60
2018-05-21T09:06:56.666Z,1012.61
2018-05-21T09:07:56.672Z,1012.61
2018-05-21T09:08:56.645Z,1012.76
2018-05-21T09:09:56.684Z,1012.71
2018-05-21T09:10:56.627Z,1012.54
2018-05-21T09:11:56.633Z,1012.58
2018-05-21T09:12:56.606Z,1012.79
2018-05-21T09:13:56.622Z,1012.82
2018-05-21T09:14:56.601Z,1012.64
2018-05-21T09:15:56.605Z,1012.60
2018-05-21T09:16:56.637Z,1012.53
2018-05-21T09:17:56.614Z,1012.56
2018-05-21T09:18:56.555Z,1012.65
2018-05-21T09:19:56.555Z,1012.60
2018-05-21T09:20:56.584Z,1012.84
2018-05-21T09:21:56.536Z,1012.89
2018-05-21T09:22:56.550Z,1012.67
2018-05-21T09:23:56.524Z,1012.88
2018-05-21T09:24:56.522Z,1012.85
2018-05-21T09:25:56.516Z,1012.76
2018-05-21T09:26:56.511Z,1012.62
2018-05-21T09:27:56.492Z,1012.81
2018-05-21T09:28:56.480Z,1012.62
2018-05-21T09:29:56.472Z,1012.70
2018-05-21T09:30:56.466Z,1012.65
2018-05-21T09:31:56.498Z,1012.64
2018-05-21T09:32:56.471Z,1012.56
2018-05-21T09:33:56.454Z,1012.58
2018-05-21T09:34:56.449Z,1012.59
2018-05-21T09:35:56.451Z,1012.53
2018-05-21T09:36:56.433Z,1012.47
2018-05-21T09:37:56.460Z,1012.38
2018-05-21T09:38:56.443Z,1012.27
2018-05-21T09:39:56.428Z,1012.10
2018-05-21T09:40:56.428Z,1012.03
2018-05-21T09:41:56.441Z,1012.06
2018-05-21T09:42:56.440Z,1011.81
2018-05-21T09:43:56.410Z,1011.72
2018-05-21T09:44:56.407Z,1011.65
2018-05-21T09:45:56.407Z,1011.76
2018-05-21T09:46:58.229Z,1011.89
2018-05-21T09:47:56.425Z,1011.81
2018-05-21T09:48:56.406Z,1011.75
2018-05-21T09:49:56.402Z,1011.83
2018-05-21T09:50:56.395Z,1011.94
2018-05-21T09:51:56.398Z,1012.03
2018-05-21T09:52:56.397Z,1012.12
2018-05-21T09:53:56.404Z,1012.31
2018-05-21T09:54:56.392Z,1012.40
2018-05-21T09:55:56.386Z,1012.42
2018-05-21T09:56:56.388Z,1012.33
2018-05-21T09:57:56.384Z,1012.39
2018-05-21T09:58:56.403Z,1012.16
2018-05-21T09:59:56.404Z,1012.17
2018-05-21T10:00:56.397Z,1012.15
2018-05-21T10:01:56.384Z,1012.25
2018-05-21T10:02:56.381Z,1012.18
2018-05-21T10:03:56.414Z,1012.16
2018-05-21T10:04:56.382Z,1012.19
2018-05-21T10:05:56.380Z,1012.17
2018-05-21T10:06:56.366Z,1012.29
2018-05-21T10:07:56.372Z,1012.22
2018-05-21T10:08:56.374Z,1012.33
2018-05-21T10:09:56.379Z,1012.25
2018-05-21T10:10:56.373Z,1012.21
2018-05-21T10:11:56.358Z,1012.12
2018-05-21T10:12:56.357Z,1012.16
2018-05-21T10:13:56.351Z,1012.21
2018-05-21T10:14:56.369Z,1012.22
2018-05-21T10:15:56.362Z,1012.24
2018-05-21T10:16:56.346Z,1012.36
2018-05-21T10:17:56.338Z,1012.27
2018-05-21T10:18:56.337Z,1012.18
2018-05-21T10:19:56.350Z,1012.15
2018-05-21T10:20:56.341Z,1012.23
2018-05-21T10:21:56.333Z,1012.27
2018-05-21T10:22:56.343Z,1012.25
2018-05-21T10:23:56.354Z,1012.16
2018-05-21T10:24:56.328Z,1012.16
2018-05-21T10:25:56.332Z,1012.11
2018-05-21T10:26:56.314Z,1012.13
2018-05-21T10:27:56.309Z,1012.12
2018-05-21T10:28:56.331Z,1012.14
2018-05-21T10:29:56.307Z,1012.14
2018-05-21T10:30:56.375Z,1012.06
2018-05-21T10:31:56.296Z,1012.09
2018-05-21T10:32:56.377Z,1012.07
2018-05-21T10:33:56.291Z,1012.10
2018-05-21T10:34:56.293Z,1012.08
2018-05-21T10:35:56.289Z,1011.99
2018-05-21T10:36:56.292Z,1012.04
2018-05-21T10:37:56.307Z,1012.02
2018-05-21T10:38:56.315Z,1011.96
2018-05-21T10:39:56.296Z,1012.03
2018-05-21T10:40:56.277Z,1012.08
2018-05-21T10:41:56.275Z,1012.07
2018-05-21T10:42:56.271Z,1012.07
2018-05-21T10:43:56.345Z,1011.99
2018-05-21T10:44:56.270Z,1012.00
2018-05-21T10:45:56.283Z,1012.01
2018-05-21T10:46:56.306Z,1011.97
2018-05-21T10:47:56.281Z,1011.92
2018-05-21T10:48:56.293Z,1011.83
2018-05-21T10:49:56.268Z,1011.80
2018-05-21T10:50:56.262Z,1011.81
2018-05-21T10:51:56.260Z,1011.90
2018-05-21T10:52:56.256Z,1011.87
2018-05-21T10:53:56.283Z,1011.82
2018-05-21T10:54:56.258Z,1011.93
2018-05-21T10:55:56.258Z,1011.96
2018-05-21T10:56:56.249Z,1011.92
2018-05-21T10:57:56.245Z,1011.86
2018-05-21T10:58:56.248Z,1011.93
2018-05-21T10:59:56.272Z,1011.87
2018-05-21T11:00:56.248Z,1011.83
2018-05-21T11:01:56.249Z,1011.76
2018-05-21T11:02:56.271Z,1011.74
2018-05-21T11:03:56.307Z,1011.72
2018-05-21T11:04:56.250Z,1011.76
2018-05-21T11:05:56.245Z,1011.75
2018-05-21T11:06:56.252Z,1011.76
2018-05-21T11:07:56.245Z,1011.76
2018-05-21T11:08:56.243Z,1011.76
2018-05-21T11:09:56.267Z,1011.76
2018-05-21T11:10:56.245Z,1011.70
2018-05-21T11:11:56.243Z,1011.70
2018-05-21T11:12:56.258Z,1011.65
2018-05-21T11:13:56.242Z,1011.63
2018-05-21T11:14:56.262Z,1011.60
2018-05-21T11:15:56.262Z,1011.63
2018-05-21T11:16:56.260Z,1011.60
2018-05-21T11:17:56.256Z,1011.61
2018-05-21T11:18:56.250Z,1011.58
2018-05-21T11:19:56.280Z,1011.63
2018-05-21T11:20:56.284Z,1011.56
2018-05-21T11:21:56.282Z,1011.53
2018-05-21T11:22:56.251Z,1011.49
2018-05-21T11:23:58.016Z,1011.51
2018-05-21T11:24:56.256Z,1011.55
2018-05-21T11:25:56.263Z,1011.39
2018-05-21T11:26:56.277Z,1011.41
2018-05-21T11:27:56.259Z,1011.56
2018-05-21T11:28:56.257Z,1011.54
2018-05-21T11:29:56.275Z,1011.52
2018-05-21T11:30:56.261Z,1011.49
2018-05-21T11:31:56.299Z,1011.38
2018-05-21T11:32:56.262Z,1011.20
2018-05-21T11:33:56.271Z,1011.30
2018-05-21T11:34:56.280Z,1011.22
2018-05-21T11:35:56.266Z,1011.27
2018-05-21T11:36:56.273Z,1011.26
2018-05-21T11:37:56.277Z,1011.26
2018-05-21T11:38:56.268Z,1011.20
2018-05-21T11:39:56.288Z,1011.22
2018-05-21T11:40:56.315Z,1011.09
2018-05-21T11:41:56.272Z,1011.09
2018-05-21T11:42:56.281Z,1011.05
2018-05-21T11:43:56.273Z,1011.21
2018-05-21T11:44:56.281Z,1011.21
2018-05-21T11:45:56.272Z,1011.21
2018-05-21T11:46:56.288Z,1011.20
2018-05-21T11:47:56.275Z,1011.21
2018-05-21T11:48:56.293Z,1011.21
2018-05-21T11:49:56.266Z,1011.13
2018-05-21T11:50:56.288Z,1011.18
2018-05-21T11:51:56.284Z,1011.13
2018-05-21T11:52:56.276Z,1011.12
2018-05-21T11:53:56.301Z,1011.11
2018-05-21T11:54:56.288Z,1011.03
2018-05-21T11:55:56.274Z,1011.06
2018-05-21T11:56:56.270Z,1011.07
2018-05-21T11:57:56.273Z,1011.06
2018-05-21T11:58:56.267Z,1011.09
2018-05-21T11:59:56.290Z,1011.05
2018-05-21T12:00:56.294Z,1011.06
2018-05-21T12:01:56.298Z,1010.96
2018-05-21T12:02:56.276Z,1011.01
2018-05-21T12:03:56.295Z,1010.94
2018-05-21T12:04:56.279Z,1011.05
2018-05-21T12:05:56.276Z,1010.92
2018-05-21T12:06:56.306Z,1010.93
2018-05-21T12:07:56.286Z,1011.00
2018-05-21T12:08:56.292Z,1010.93
2018-05-21T12:09:56.295Z,1010.89
2018-05-21T12:10:56.284Z,1010.92
2018-05-21T12:11:56.282Z,1010.91
2018-05-21T12:12:56.310Z,1010.84
2018-05-21T12:13:56.292Z,1010.91
2018-05-21T12:14:56.294Z,1011.01
2018-05-21T12:15:56.286Z,1010.94
2018-05-21T12:16:56.292Z,1011.00
2018-05-21T12:17:56.300Z,1010.99
2018-05-21T12:18:56.307Z,1010.97
2018-05-21T12:19:56.296Z,1010.94
2018-05-21T12:20:56.298Z,1010.93
2018-05-21T12:21:56.295Z,1010.90
2018-05-21T12:22:56.301Z,1010.92
2018-05-21T12:23:56.310Z,1010.90
2018-05-21T12:24:56.294Z,1010.82
2018-05-21T12:25:56.292Z,1010.91
2018-05-21T12:26:56.298Z,1010.76
2018-05-21T12:27:56.299Z,1010.86
2018-05-21T12:28:56.358Z,1010.97
2018-05-21T12:29:56.320Z,1010.92
2018-05-21T12:30:56.325Z,1010.91
2018-05-21T12:31:56.320Z,1010.92
2018-05-21T12:32:56.309Z,1010.85
2018-05-21T12:33:56.320Z,1010.91
2018-05-21T12:34:56.311Z,1010.84
2018-05-21T12:35:56.339Z,1010.80
2018-05-21T12:36:56.315Z,1010.90
2018-05-21T12:37:56.323Z,1010.88
2018-05-21T12:38:56.334Z,1010.85
2018-05-21T12:39:56.323Z,1010.79
2018-05-21T12:40:56.317Z,1010.69
2018-05-21T12:41:56.324Z,1010.66
2018-05-21T12:42:56.331Z,1010.52
2018-05-21T12:43:56.333Z,1010.53
2018-05-21T12:44:56.319Z,1010.53
2018-05-21T12:45:56.334Z,1010.60
2018-05-21T12:46:56.337Z,1010.67
2018-05-21T12:47:56.336Z,1010.67
2018-05-21T12:48:56.317Z,1010.68
2018-05-21T12:49:56.333Z,1010.60
2018-05-21T12:50:56.320Z,1010.64
2018-05-21T12:51:56.318Z,1010.63
2018-05-21T12:52:56.321Z,1010.65
2018-05-21T12:53:56.394Z,1010.59
2018-05-21T12:54:56.379Z,1010.61
2018-05-21T12:55:56.422Z,1010.60
2018-05-21T12:56:56.314Z,1010.61
2018-05-21T12:57:56.314Z,1010.59
2018-05-21T12:58:56.316Z,1010.51
2018-05-21T12:59:56.330Z,1010.57
2018-05-21T13:00:56.321Z,1010.62
2018-05-21T13:01:56.317Z,1010.62
2018-05-21T13:02:56.309Z,1010.60
2018-05-21T13:03:56.308Z,1010.56
2018-05-21T13:04:56.331Z,1010.62
2018-05-21T13:05:56.328Z,1010.54
2018-05-21T13:06:56.324Z,1010.49
2018-05-21T13:07:56.356Z,1010.48
2018-05-21T13:08:56.307Z,1010.51
2018-05-21T13:09:56.313Z,1010.50
2018-05-21T13:10:56.304Z,1010.49
2018-05-21T13:11:56.333Z,1010.54
2018-05-21T13:12:56.308Z,1010.57
2018-05-21T13:13:56.321Z,1010.58
2018-05-21T13:14:56.303Z,1010.54
2018-05-21T13:15:56.306Z,1010.55
2018-05-21T13:16:56.323Z,1010.47
2018-05-21T13:17:56.308Z,1010.40
2018-05-21T13:18:56.308Z,1010.40
2018-05-21T13:19:56.293Z,1010.39
2018-05-21T13:20:56.301Z,1010.40
2018-05-21T13:21:56.298Z,1010.38
2018-05-21T13:22:56.318Z,1010.38
2018-05-21T13:23:56.295Z,1010.38
2018-05-21T13:24:56.290Z,1010.30
2018-05-21T13:25:56.306Z,1010.30
2018-05-21T13:26:56.302Z,1010.27
2018-05-21T13:27:56.291Z,1010.29
2018-05-21T13:28:56.305Z,1010.26
2018-05-21T13:29:56.299Z,1010.25
2018-05-21T13:30:56.299Z,1010.28
2018-05-21T13:31:56.282Z,1010.26
2018-05-21T13:32:56.280Z,1010.28
2018-05-21T13:33:56.287Z,1010.28
2018-05-21T13:34:56.275Z,1010.25
2018-05-21T13:35:56.289Z,1010.20
2018-05-21T13:36:56.268Z,1010.19
2018-05-21T13:37:56.265Z,1010.14
2018-05-21T13:38:56.264Z,1010.17
2018-05-21T13:39:56.261Z,1010.15
2018-05-21T13:40:56.320Z,1010.09
2018-05-21T13:41:56.271Z,1010.10
2018-05-21T13:42:56.265Z,1010.16
2018-05-21T13:43:56.248Z,1010.03
2018-05-21T13:44:56.249Z,1010.14
2018-05-21T13:45:56.267Z,1010.15
2018-05-21T13:46:56.267Z,1010.15
2018-05-21T13:47:56.235Z,1010.09
2018-05-21T13:48:56.238Z,1010.09
2018-05-21T13:49:56.236Z,1010.13
2018-05-21T13:50:56.323Z,1010.15
2018-05-21T13:51:56.241Z,1010.06
2018-05-21T13:52:56.241Z,1010.06
2018-05-21T13:53:56.228Z,1010.05
2018-05-21T13:54:56.227Z,1010.00
2018-05-21T13:55:56.226Z,1009.92
2018-05-21T13:56:56.223Z,1009.94
2018-05-21T13:57:56.224Z,1009.91
2018-05-21T13:58:56.298Z,1009.93
2018-05-21T13:59:56.196Z,1009.93
2018-05-21T14:00:56.207Z,1009.93
2018-05-21T14:01:56.247Z,1009.96
2018-05-21T14:02:56.182Z,1009.95
2018-05-21T14:03:56.184Z,1009.96
2018-05-21T14:04:56.179Z,1009.90